Time;durP1;ratioP1;P1;durP2;ratioP2;P2;SDS_P1;SDS_P2;PMS_P1;PMS_P2;Temp;Humidity;BMP_temperature;BMP_pressure;BME280_temperature;BME280_humidity;BME280_pressure;Samples;Min_cycle;Max_cycle;Signal;HPM_P1;HPM_P2
2023/11/06 00:00:05;;;;;;;2.05;0.43;;;10.30;99.90;;;;;;4974840;28;20054;-79
2023/11/06 00:02:32;;;;;;;2.53;0.95;;;10.20;99.90;;;;;;4984812;28;20071;-79
2023/11/06 00:04:59;;;;;;;1.83;0.70;;;10.10;99.90;;;;;;4986335;28;20073;-80
2023/11/06 00:07:26;;;;;;;2.70;0.75;;;10.10;99.90;;;;;;4986510;28;20047;-81
2023/11/06 00:09:53;;;;;;;1.85;0.60;;;10.00;99.90;;;;;;4987311;28;20062;-79
2023/11/06 00:12:19;;;;;;;2.03;0.65;;;10.00;99.90;;;;;;4980999;28;20046;-79
2023/11/06 00:14:47;;;;;;;1.60;0.60;;;9.90;99.90;;;;;;4984999;28;20050;-78
2023/11/06 00:17:14;;;;;;;1.13;0.47;;;9.90;99.90;;;;;;4986717;28;20046;-80
2023/11/06 00:19:42;;;;;;;0.88;0.50;;;9.90;99.90;;;;;;4989510;28;20050;-79
2023/11/06 00:22:10;;;;;;;2.42;0.60;;;9.90;99.90;;;;;;4986738;28;20509;-80
2023/11/06 00:24:37;;;;;;;0.93;0.47;;;9.90;99.90;;;;;;4981220;28;20070;-80
2023/11/06 00:27:05;;;;;;;1.00;0.32;;;9.90;99.90;;;;;;4983803;28;20047;-81
2023/11/06 00:29:32;;;;;;;1.80;0.55;;;9.90;99.90;;;;;;4993665;28;20050;-79
2023/11/06 00:32:02;;;;;;;3.17;0.73;;;9.90;99.90;;;;;;4991550;28;20042;-81
2023/11/06 00:34:29;;;;;;;;;;;9.90;99.90;;;;;;4982431;28;20043;-79
2023/11/06 00:36:56;;;;;;;1.23;0.50;;;9.90;99.90;;;;;;4983139;28;19930;-80
2023/11/06 00:39:22;;;;;;;2.17;0.63;;;10.00;99.90;;;;;;4982912;28;20059;-79
2023/11/06 00:41:49;;;;;;;2.45;0.70;;;10.00;99.90;;;;;;4981391;28;20430;-78
2023/11/06 00:44:16;;;;;;;3.40;1.23;;;10.00;99.90;;;;;;4995044;28;20046;-79
2023/11/06 00:46:43;;;;;;;0.98;0.50;;;10.00;99.90;;;;;;4990369;28;20109;-77
2023/11/06 00:49:10;;;;;;;4.22;0.60;;;10.10;99.90;;;;;;4983994;28;20058;-79
2023/11/06 00:51:38;;;;;;;2.25;0.73;;;10.10;99.90;;;;;;4981362;28;20047;-79
2023/11/06 00:54:05;;;;;;;2.88;0.73;;;10.10;99.90;;;;;;4981123;28;20047;-79
2023/11/06 00:56:32;;;;;;;2.00;0.80;;;10.10;99.90;;;;;;4986175;28;20047;-79
2023/11/06 00:58:59;;;;;;;3.67;0.70;;;10.10;99.90;;;;;;4993575;28;20038;-79
2023/11/06 01:01:28;;;;;;;3.53;0.90;;;10.20;99.90;;;;;;4996511;28;20042;-78
2023/11/06 01:03:56;;;;;;;2.50;0.90;;;10.10;99.90;;;;;;4984386;28;20047;-79
2023/11/06 01:06:24;;;;;;;3.50;0.95;;;10.20;99.90;;;;;;4984721;28;20038;-79
2023/11/06 01:08:51;;;;;;;4.38;0.85;;;10.20;99.90;;;;;;4979448;28;20093;-79
2023/11/06 01:11:18;;;;;;;4.25;0.63;;;10.20;99.90;;;;;;4980845;28;20049;-79
2023/11/06 01:13:45;;;;;;;3.58;0.73;;;10.30;99.90;;;;;;4988344;28;20051;-79
2023/11/06 01:16:12;;;;;;;2.25;0.90;;;10.30;99.90;;;;;;4985057;28;20042;-79
2023/11/06 01:18:39;;;;;;;2.67;0.70;;;10.30;99.90;;;;;;4984834;28;20392;-79
2023/11/06 01:21:06;;;;;;;2.28;0.70;;;10.30;99.90;;;;;;4990650;28;20049;-80
2023/11/06 01:23:34;;;;;;;3.70;1.02;;;10.30;99.90;;;;;;4991015;28;20116;-79
2023/11/06 01:26:04;;;;;;;5.38;1.00;;;10.40;99.90;;;;;;4996012;28;20046;-76
2023/11/06 01:28:31;;;;;;;3.08;0.90;;;10.40;99.90;;;;;;4999646;28;20046;-78
2023/11/06 01:30:58;;;;;;;4.15;1.10;;;10.40;99.90;;;;;;4980814;28;20511;-80
2023/11/06 01:33:24;;;;;;;3.13;1.02;;;10.50;99.90;;;;;;4977787;28;20097;-80
2023/11/06 01:35:51;;;;;;;4.10;0.77;;;10.50;99.90;;;;;;4980820;28;20051;-79
2023/11/06 01:38:18;;;;;;;2.33;0.82;;;10.50;99.90;;;;;;4982287;28;20042;-80
2023/11/06 01:40:45;;;;;;;5.32;0.98;;;10.60;99.90;;;;;;4981688;28;20051;-80
2023/11/06 01:43:22;;;;;;;1.77;0.70;;;10.60;99.90;;;;;;4987063;28;20057;-79
2023/11/06 01:45:49;;;;;;;2.90;0.60;;;10.60;99.90;;;;;;4987344;28;20055;-80
2023/11/06 01:48:17;;;;;;;3.20;0.63;;;10.70;99.90;;;;;;4994596;28;20051;-80
2023/11/06 01:50:45;;;;;;;3.05;0.70;;;10.70;99.90;;;;;;4980751;28;20074;-79
2023/11/06 01:53:13;;;;;;;2.20;0.73;;;10.70;99.90;;;;;;4970170;28;20506;-78
2023/11/06 01:55:44;;;;;;;4.15;0.90;;;10.70;99.90;;;;;;4985175;28;20478;-79
2023/11/06 01:58:13;;;;;;;1.40;0.43;;;10.70;99.90;;;;;;4981988;28;20047;-80
2023/11/06 02:00:40;;;;;;;5.55;0.90;;;10.70;99.90;;;;;;4990021;28;20061;-80
2023/11/06 02:03:08;;;;;;;1.88;0.60;;;10.80;99.90;;;;;;4975945;28;20246;-79
2023/11/06 02:05:36;;;;;;;2.55;0.90;;;10.80;99.90;;;;;;4975160;28;20510;-79
2023/11/06 02:08:04;;;;;;;7.25;0.90;;;10.80;99.90;;;;;;4976524;28;20145;-79
2023/11/06 02:10:32;;;;;;;3.55;0.68;;;10.80;99.90;;;;;;4995289;28;20054;-78
2023/11/06 02:12:59;;;;;;;2.42;0.73;;;10.80;99.90;;;;;;4981136;28;20109;-80
2023/11/06 02:15:29;;;;;;;2.13;0.82;;;10.80;99.90;;;;;;4996130;28;20131;-79
2023/11/06 02:17:55;;;;;;;4.50;1.17;;;10.80;99.90;;;;;;4981122;28;20053;-80
2023/11/06 02:20:22;;;;;;;4.90;0.90;;;10.80;99.90;;;;;;4980071;28;20051;-80
2023/11/06 02:22:56;;;;;;;3.78;0.63;;;10.80;99.90;;;;;;4981048;28;20097;-80
2023/11/06 02:25:23;;;;;;;4.60;0.60;;;10.80;99.90;;;;;;4986691;28;20054;-80
2023/11/06 02:27:51;;;;;;;6.00;0.98;;;10.80;99.90;;;;;;4988322;28;20490;-80
2023/11/06 02:30:18;;;;;;;3.78;0.80;;;10.80;99.90;;;;;;4982850;28;20513;-78
2023/11/06 02:32:45;;;;;;;4.00;1.00;;;10.80;99.90;;;;;;4981003;28;20098;-78
2023/11/06 02:35:11;;;;;;;4.40;0.88;;;10.80;99.90;;;;;;4986675;28;20042;-79
2023/11/06 02:37:38;;;;;;;2.90;1.27;;;10.80;99.90;;;;;;4983751;28;20053;-80
2023/11/06 02:40:06;;;;;;;5.88;0.95;;;10.80;99.90;;;;;;4984366;28;20077;-79
2023/11/06 02:42:36;;;;;;;3.28;0.68;;;10.80;99.90;;;;;;4984403;28;20051;-79
2023/11/06 02:45:04;;;;;;;2.67;0.63;;;10.80;99.90;;;;;;4986745;28;20051;-79
2023/11/06 02:47:31;;;;;;;3.60;0.73;;;10.80;99.90;;;;;;4979532;28;20573;-79
2023/11/06 02:49:58;;;;;;;2.53;0.70;;;10.70;99.90;;;;;;4981577;28;20491;-79
2023/11/06 02:52:25;;;;;;;3.42;0.85;;;10.70;99.90;;;;;;4989365;28;20046;-79
2023/11/06 02:54:52;;;;;;;4.28;1.08;;;10.60;99.90;;;;;;4992622;28;20111;-80
2023/11/06 02:57:19;;;;;;;3.08;1.10;;;10.60;99.90;;;;;;4989885;28;20547;-80
2023/11/06 02:59:46;;;;;;;4.90;1.10;;;10.60;99.90;;;;;;4980011;28;20051;-81
2023/11/06 03:02:13;;;;;;;2.55;0.98;;;10.60;99.90;;;;;;4981700;28;20403;-79
2023/11/06 03:04:39;;;;;;;2.83;0.80;;;10.60;99.90;;;;;;4981105;28;20047;-80
2023/11/06 03:07:06;;;;;;;3.45;0.90;;;10.60;99.90;;;;;;4986483;28;20055;-80
2023/11/06 03:09:33;;;;;;;2.90;0.80;;;10.60;99.90;;;;;;4986272;28;20345;-79
2023/11/06 03:12:02;;;;;;;3.50;0.90;;;10.60;99.90;;;;;;4982137;28;20055;-79
2023/11/06 03:14:29;;;;;;;3.53;0.73;;;10.70;99.90;;;;;;4977348;28;20042;-79
2023/11/06 03:16:55;;;;;;;3.00;0.80;;;10.60;99.90;;;;;;4989678;28;20053;-79
2023/11/06 03:19:22;;;;;;;4.45;1.17;;;10.70;99.90;;;;;;4981032;28;20050;-79
2023/11/06 03:21:50;;;;;;;2.38;0.77;;;10.70;99.90;;;;;;4985856;28;20062;-78
2023/11/06 03:24:17;;;;;;;4.35;1.10;;;10.70;99.90;;;;;;4983440;28;20050;-80
2023/11/06 03:26:44;;;;;;;6.47;0.73;;;10.70;99.90;;;;;;4980783;28;20113;-79
2023/11/06 03:29:11;;;;;;;3.90;0.77;;;10.70;99.90;;;;;;4986705;28;20053;-80
2023/11/06 03:31:38;;;;;;;3.45;1.00;;;10.70;99.90;;;;;;4983717;28;20047;-79
2023/11/06 03:34:05;;;;;;;2.20;0.88;;;10.70;99.90;;;;;;4990325;28;20426;-81
2023/11/06 03:36:32;;;;;;;4.18;0.70;;;10.70;99.90;;;;;;4987958;28;20042;-79
2023/11/06 03:38:58;;;;;;;3.88;1.35;;;10.70;99.90;;;;;;4987411;28;20051;-79
2023/11/06 03:41:25;;;;;;;6.30;1.00;;;10.70;99.90;;;;;;4984595;28;20046;-79
2023/11/06 03:43:52;;;;;;;1.92;0.75;;;10.70;99.90;;;;;;4981995;28;20078;-80
2023/11/06 03:46:20;;;;;;;4.97;0.73;;;10.70;99.90;;;;;;4985339;28;20050;-80
2023/11/06 03:48:47;;;;;;;1.67;0.70;;;10.70;99.90;;;;;;4983878;28;20071;-78
2023/11/06 03:51:14;;;;;;;2.38;0.88;;;10.60;99.90;;;;;;4993273;28;20042;-81
2023/11/06 03:53:41;;;;;;;1.70;0.70;;;10.60;99.90;;;;;;4982643;28;20043;-81
2023/11/06 03:56:09;;;;;;;3.53;0.70;;;10.60;99.90;;;;;;4983623;28;20061;-81
2023/11/06 03:58:36;;;;;;;3.65;0.88;;;10.60;99.90;;;;;;4982569;28;20047;-78
2023/11/06 04:01:03;;;;;;;1.77;0.60;;;10.60;99.90;;;;;;4981393;28;20051;-80
2023/11/06 04:03:30;;;;;;;3.80;0.90;;;10.50;99.90;;;;;;4986740;28;20104;-80
2023/11/06 04:05:58;;;;;;;1.42;0.60;;;10.50;99.90;;;;;;4982631;28;20054;-79
2023/11/06 04:08:25;;;;;;;3.72;0.95;;;10.50;99.90;;;;;;4993556;28;20050;-79
2023/11/06 04:10:53;;;;;;;3.42;0.93;;;10.60;99.90;;;;;;4983460;28;20047;-79
2023/11/06 04:13:20;;;;;;;3.00;0.80;;;10.60;99.90;;;;;;4981545;28;20093;-79
2023/11/06 04:15:46;;;;;;;3.97;0.90;;;10.60;99.90;;;;;;4983393;28;20059;-79
2023/11/06 04:18:13;;;;;;;3.33;0.73;;;10.60;99.90;;;;;;4987684;28;20493;-80
2023/11/06 04:20:41;;;;;;;2.25;0.50;;;10.60;99.90;;;;;;5000270;28;20050;-78
2023/11/06 04:23:09;;;;;;;3.08;0.73;;;10.60;99.90;;;;;;4989465;28;20411;-79
2023/11/06 04:25:37;;;;;;;2.50;0.80;;;10.60;99.90;;;;;;4982406;28;20050;-79
2023/11/06 04:28:08;;;;;;;2.83;0.70;;;10.60;99.90;;;;;;4981527;28;20065;-79
2023/11/06 04:30:35;;;;;;;2.42;0.70;;;10.60;99.90;;;;;;4979637;28;20051;-80
2023/11/06 04:33:02;;;;;;;1.00;0.50;;;10.60;99.90;;;;;;4985544;28;20102;-80
2023/11/06 04:35:30;;;;;;;1.67;0.50;;;10.70;99.90;;;;;;4988090;28;20430;-80
2023/11/06 04:37:56;;;;;;;2.65;0.60;;;10.60;99.90;;;;;;4987661;28;20050;-79
2023/11/06 04:40:28;;;;;;;3.30;0.60;;;10.60;99.90;;;;;;4982215;28;20053;-80
2023/11/06 04:42:54;;;;;;;6.28;1.02;;;10.60;99.90;;;;;;4975474;28;20050;-81
2023/11/06 04:45:21;;;;;;;1.95;0.70;;;10.60;99.90;;;;;;4978444;28;20046;-80
2023/11/06 04:47:48;;;;;;;3.30;0.80;;;10.70;99.90;;;;;;4989528;28;20050;-80
2023/11/06 04:50:15;;;;;;;2.33;0.60;;;10.60;99.90;;;;;;4984465;28;20054;-80
2023/11/06 04:52:41;;;;;;;1.13;0.50;;;10.60;99.90;;;;;;4986812;28;20073;-80
2023/11/06 04:55:09;;;;;;;2.28;0.98;;;10.70;99.90;;;;;;4986494;28;20051;-80
2023/11/06 04:57:35;;;;;;;1.58;0.88;;;10.70;99.90;;;;;;4982630;28;20042;-79
2023/11/06 05:00:03;;;;;;;1.92;0.60;;;10.70;99.90;;;;;;4982958;28;20408;-81
2023/11/06 05:02:30;;;;;;;1.85;0.70;;;10.70;99.90;;;;;;4990343;28;20049;-80
2023/11/06 05:04:57;;;;;;;4.18;0.75;;;10.70;99.90;;;;;;4986093;28;20081;-80
2023/11/06 05:07:24;;;;;;;2.50;0.80;;;10.70;99.90;;;;;;4983078;28;20057;-79
2023/11/06 05:09:50;;;;;;;5.68;1.05;;;10.80;99.90;;;;;;4987909;28;20046;-79
2023/11/06 05:12:17;;;;;;;3.17;1.05;;;10.80;99.90;;;;;;4978509;28;20043;-80
2023/11/06 05:14:44;;;;;;;2.47;0.85;;;10.80;99.90;;;;;;4985652;28;20066;-80
2023/11/06 05:17:11;;;;;;;2.72;0.80;;;10.80;99.90;;;;;;4988826;28;20051;-78
2023/11/06 05:19:41;;;;;;;3.58;0.85;;;10.80;99.90;;;;;;4983791;28;20053;-79
2023/11/06 05:22:09;;;;;;;1.58;0.63;;;10.80;99.90;;;;;;4980967;28;20054;-82
2023/11/06 05:24:43;;;;;;;2.83;0.73;;;10.80;99.90;;;;;;4980028;28;20134;-80
2023/11/06 05:27:10;;;;;;;1.17;0.60;;;10.80;99.90;;;;;;4977787;28;20067;-80
2023/11/06 05:29:37;;;;;;;2.08;0.60;;;10.80;99.90;;;;;;4984937;28;20046;-81
2023/11/06 05:32:04;;;;;;;3.00;0.50;;;10.80;99.90;;;;;;4984123;28;20054;-79
2023/11/06 05:34:31;;;;;;;2.05;0.70;;;10.80;99.90;;;;;;4996949;28;20450;-80
2023/11/06 05:36:58;;;;;;;2.08;0.55;;;10.80;99.90;;;;;;4979185;28;20047;-80
2023/11/06 05:39:25;;;;;;;2.15;0.60;;;10.80;99.90;;;;;;4978269;28;20043;-79
2023/11/06 05:41:52;;;;;;;3.72;0.73;;;10.80;99.90;;;;;;4976455;28;20054;-80
2023/11/06 05:44:19;;;;;;;2.65;0.70;;;10.80;99.90;;;;;;4993692;28;20093;-79
2023/11/06 05:46:46;;;;;;;3.10;0.60;;;10.80;99.90;;;;;;4986595;28;20086;-79
2023/11/06 05:49:12;;;;;;;2.75;0.55;;;10.80;99.90;;;;;;4986454;28;20430;-79
2023/11/06 05:51:40;;;;;;;0.85;0.50;;;10.80;99.90;;;;;;4984173;28;20062;-81
2023/11/06 05:54:07;;;;;;;1.30;0.65;;;10.80;99.90;;;;;;4987897;28;20411;-79
2023/11/06 05:56:33;;;;;;;6.25;0.85;;;10.80;99.90;;;;;;4981079;28;20046;-79
2023/11/06 05:59:02;;;;;;;1.15;0.50;;;10.80;99.90;;;;;;4987980;28;20053;-79
2023/11/06 06:01:30;;;;;;;3.30;0.87;;;10.80;99.90;;;;;;4987738;28;20057;-80
2023/11/06 06:03:57;;;;;;;5.63;0.80;;;10.80;99.90;;;;;;4980119;28;20321;-81
2023/11/06 06:06:25;;;;;;;2.25;0.63;;;10.80;99.90;;;;;;4975993;28;20516;-80
2023/11/06 06:08:52;;;;;;;2.63;0.90;;;10.80;99.90;;;;;;4981462;28;20054;-81
2023/11/06 06:11:19;;;;;;;1.33;0.68;;;10.70;99.90;;;;;;4981973;28;20054;-80
2023/11/06 06:13:46;;;;;;;2.35;0.60;;;10.80;99.90;;;;;;4989834;28;20057;-79
2023/11/06 06:16:13;;;;;;;1.40;0.70;;;10.80;99.90;;;;;;5029809;22;20570;-79
2023/11/06 06:18:40;;;;;;;1.60;0.50;;;10.80;99.90;;;;;;5016545;28;20498;-79
2023/11/06 06:21:07;;;;;;;4.90;0.70;;;10.80;99.90;;;;;;4995523;28;20494;-79
2023/11/06 06:23:33;;;;;;;3.90;0.63;;;10.80;99.90;;;;;;5009938;28;20049;-78
2023/11/06 06:26:01;;;;;;;2.28;0.60;;;10.80;99.90;;;;;;5008281;28;20065;-78
2023/11/06 06:28:28;;;;;;;1.63;0.52;;;10.80;99.90;;;;;;5008097;28;20042;-79
2023/11/06 06:30:54;;;;;;;2.55;0.60;;;10.80;99.90;;;;;;4997993;28;20053;-79
2023/11/06 06:33:21;;;;;;;2.22;0.55;;;10.70;99.90;;;;;;4996216;28;20042;-79
2023/11/06 06:35:48;;;;;;;3.40;0.98;;;10.70;99.90;;;;;;4977630;28;20418;-79
2023/11/06 06:38:15;;;;;;;2.05;0.57;;;10.80;99.90;;;;;;4993605;28;20043;-80
2023/11/06 06:40:43;;;;;;;1.40;0.50;;;10.80;99.90;;;;;;4997618;28;20101;-79
2023/11/06 06:43:09;;;;;;;1.52;0.95;;;10.80;99.90;;;;;;4999659;28;20065;-79
2023/11/06 06:45:36;;;;;;;3.13;0.85;;;10.80;99.90;;;;;;5000070;28;20057;-79
2023/11/06 06:48:03;;;;;;;3.88;0.60;;;10.80;99.90;;;;;;4997654;28;20046;-79
2023/11/06 06:50:30;;;;;;;16.42;9.05;;;10.80;99.90;;;;;;4996139;28;20056;-79
2023/11/06 06:52:57;;;;;;;4.47;2.90;;;10.80;99.90;;;;;;4991378;28;20137;-79
2023/11/06 06:55:25;;;;;;;3.85;1.67;;;10.80;99.90;;;;;;5000229;28;20054;-79
2023/11/06 06:57:55;;;;;;;2.67;0.65;;;10.80;99.90;;;;;;4998312;28;20050;-79
2023/11/06 07:00:22;;;;;;;1.35;0.50;;;10.80;99.90;;;;;;4977643;28;20058;-79
2023/11/06 07:02:48;;;;;;;3.80;0.68;;;10.90;99.90;;;;;;4995664;28;20050;-79
2023/11/06 07:05:19;;;;;;;0.95;0.55;;;10.90;99.90;;;;;;4993596;28;20127;-79
2023/11/06 07:07:46;;;;;;;1.88;0.60;;;10.90;99.90;;;;;;4998177;28;20113;-79
2023/11/06 07:10:13;;;;;;;2.67;0.60;;;10.90;99.90;;;;;;4999504;28;20458;-79
2023/11/06 07:12:40;;;;;;;1.48;0.60;;;10.90;99.90;;;;;;4998179;28;20498;-79
2023/11/06 07:15:07;;;;;;;2.63;0.57;;;11.00;99.90;;;;;;4978245;28;20062;-79
2023/11/06 07:17:33;;;;;;;2.00;0.50;;;11.00;99.90;;;;;;4996355;28;20057;-79
2023/11/06 07:20:00;;;;;;;0.93;0.40;;;11.00;99.90;;;;;;4991486;28;20062;-79
2023/11/06 07:22:27;;;;;;;1.33;0.50;;;11.00;99.90;;;;;;4993164;28;20108;-79
2023/11/06 07:24:54;;;;;;;2.92;0.60;;;11.00;99.90;;;;;;5000541;28;20046;-79
2023/11/06 07:27:21;;;;;;;1.45;0.50;;;11.00;99.90;;;;;;4997588;28;20447;-79
2023/11/06 07:29:50;;;;;;;2.47;0.98;;;11.10;99.90;;;;;;4993519;28;20058;-79
2023/11/06 07:32:17;;;;;;;5.10;1.10;;;11.10;99.90;;;;;;4988568;28;20061;-78
2023/11/06 07:34:44;;;;;;;1.65;0.60;;;11.10;99.90;;;;;;4991518;28;20132;-79
2023/11/06 07:37:10;;;;;;;0.93;0.47;;;11.20;99.90;;;;;;4990984;28;20069;-78
2023/11/06 07:39:37;;;;;;;3.97;0.65;;;11.20;99.90;;;;;;4978824;28;20050;-79
2023/11/06 07:42:04;;;;;;;1.65;0.57;;;11.20;99.90;;;;;;4976643;28;20438;-79
2023/11/06 07:44:35;;;;;;;2.70;0.52;;;11.20;99.90;;;;;;4993489;28;20494;-79
2023/11/06 07:47:02;;;;;;;1.92;0.68;;;11.20;99.90;;;;;;4990423;28;20089;-79
2023/11/06 07:49:29;;;;;;;2.10;0.50;;;11.20;99.90;;;;;;4988921;28;20138;-79
2023/11/06 07:51:56;;;;;;;0.85;0.50;;;11.30;99.90;;;;;;4975998;28;20070;-79
2023/11/06 07:54:22;;;;;;;0.77;0.50;;;11.30;99.90;;;;;;4994667;28;20054;-79
2023/11/06 07:56:50;;;;;;;1.23;0.70;;;11.30;99.90;;;;;;4995172;28;20046;-79
2023/11/06 07:59:17;;;;;;;0.43;0.30;;;11.30;99.90;;;;;;4971506;28;20400;-79
2023/11/06 08:01:44;;;;;;;2.70;0.60;;;11.30;99.90;;;;;;4992153;28;20060;-79
2023/11/06 08:04:10;;;;;;;1.75;0.35;;;11.30;99.90;;;;;;4983641;28;20102;-79
2023/11/06 08:06:38;;;;;;;1.35;0.38;;;11.30;99.90;;;;;;4994636;28;20315;-79
2023/11/06 08:09:05;;;;;;;1.55;0.50;;;11.30;99.90;;;;;;4997081;28;20065;-79
2023/11/06 08:11:32;;;;;;;2.28;0.95;;;11.30;99.90;;;;;;5014957;28;20512;-79
2023/11/06 08:13:59;;;;;;;0.82;0.40;;;11.40;99.90;;;;;;4993000;28;20170;-79
2023/11/06 08:16:31;;;;;;;2.95;0.80;;;11.40;99.90;;;;;;4988782;28;20042;-79
2023/11/06 08:18:58;;;;;;;1.85;0.47;;;11.40;99.90;;;;;;4970107;28;20050;-78
2023/11/06 08:21:25;;;;;;;2.40;0.50;;;11.50;99.90;;;;;;4994326;28;20059;-80
2023/11/06 08:23:53;;;;;;;1.90;0.50;;;11.50;99.90;;;;;;4994862;28;20050;-80
2023/11/06 08:26:21;;;;;;;2.17;0.77;;;11.50;99.90;;;;;;4990889;28;20051;-77
2023/11/06 08:28:47;;;;;;;2.47;0.50;;;11.50;99.90;;;;;;4992680;28;20090;-78
2023/11/06 08:31:16;;;;;;;1.48;0.40;;;11.60;99.90;;;;;;4986230;28;20578;-79
2023/11/06 08:33:43;;;;;;;0.47;0.30;;;11.60;99.90;;;;;;4985553;28;20046;-76
2023/11/06 08:36:10;;;;;;;0.88;0.32;;;11.60;99.90;;;;;;4994311;28;20102;-78
2023/11/06 08:38:37;;;;;;;1.75;0.35;;;11.70;99.90;;;;;;4987507;28;20399;-79
2023/11/06 08:41:07;;;;;;;0.93;0.25;;;11.70;99.90;;;;;;4990468;28;20133;-78
2023/11/06 08:43:34;;;;;;;;;;;11.70;99.90;;;;;;4992187;28;20043;-78
2023/11/06 08:46:02;;;;;;;0.82;0.40;;;11.70;99.90;;;;;;4970797;28;19929;-79
2023/11/06 08:48:29;;;;;;;3.80;0.60;;;11.70;99.90;;;;;;4990995;28;20073;-78
2023/11/06 08:50:56;;;;;;;1.20;0.30;;;11.80;99.90;;;;;;4994561;28;20077;-78
2023/11/06 08:53:23;;;;;;;3.15;0.60;;;11.80;99.90;;;;;;4992315;28;20070;-78
2023/11/06 08:55:50;;;;;;;0.90;0.60;;;11.80;99.90;;;;;;4992443;28;20085;-78
2023/11/06 08:58:17;;;;;;;0.85;0.40;;;11.80;99.90;;;;;;4967573;28;20051;-78
2023/11/06 09:00:47;;;;;;;2.22;0.40;;;11.80;99.90;;;;;;4972407;28;20038;-78
2023/11/06 09:03:15;;;;;;;2.05;0.30;;;11.80;99.90;;;;;;4985015;28;20557;-79
2023/11/06 09:05:42;;;;;;;1.40;0.50;;;11.80;99.90;;;;;;4992489;28;20051;-78
2023/11/06 09:08:09;;;;;;;2.08;0.50;;;11.80;99.90;;;;;;4991142;28;20066;-77
2023/11/06 09:10:36;;;;;;;1.85;0.60;;;11.90;99.90;;;;;;5005283;28;20050;-78
2023/11/06 09:13:03;;;;;;;4.88;0.60;;;11.90;99.90;;;;;;4987821;28;20490;-78
2023/11/06 09:15:29;;;;;;;2.30;0.60;;;12.00;99.90;;;;;;4986437;28;20050;-78
2023/11/06 09:17:57;;;;;;;1.23;0.50;;;12.00;99.90;;;;;;4991582;28;20466;-78
2023/11/06 09:20:24;;;;;;;0.93;0.50;;;12.00;99.90;;;;;;4992798;28;20069;-78
2023/11/06 09:22:51;;;;;;;2.63;0.60;;;12.00;99.90;;;;;;4992663;28;20078;-78
2023/11/06 09:25:18;;;;;;;2.70;0.57;;;12.00;99.90;;;;;;4988342;28;20410;-78
2023/11/06 09:27:44;;;;;;;1.10;0.50;;;12.10;99.90;;;;;;4989169;28;20057;-78
2023/11/06 09:30:12;;;;;;;1.45;0.50;;;12.10;99.90;;;;;;4985231;28;20051;-78
2023/11/06 09:32:38;;;;;;;1.05;0.47;;;12.20;99.90;;;;;;4976965;28;20038;-78
2023/11/06 09:35:06;;;;;;;3.80;0.63;;;12.30;99.90;;;;;;4986124;28;20526;-78
2023/11/06 09:37:33;;;;;;;4.57;0.60;;;12.30;99.90;;;;;;4975965;28;20043;-78
2023/11/06 09:40:01;;;;;;;4.72;1.15;;;12.30;99.90;;;;;;4989216;28;20038;-78
2023/11/06 09:42:28;;;;;;;1.65;0.60;;;12.40;99.90;;;;;;4987032;28;20113;-78
2023/11/06 09:44:54;;;;;;;1.90;0.60;;;12.40;99.90;;;;;;4988309;28;20489;-78
2023/11/06 09:47:21;;;;;;;3.05;0.50;;;12.50;99.90;;;;;;4993918;28;20046;-78
2023/11/06 09:50:13;;;;;;;1.80;0.80;;;12.50;99.90;;;;;;4992733;28;20074;-78
2023/11/06 09:52:41;;;;;;;1.15;0.60;;;12.60;99.90;;;;;;4976588;28;20038;-78
2023/11/06 09:55:11;;;;;;;4.78;0.90;;;12.70;99.90;;;;;;4988342;28;20065;-78
2023/11/06 09:57:38;;;;;;;;;;;12.70;99.90;;;;;;4977575;28;20137;-78
2023/11/06 10:00:09;;;;;;;1.55;0.80;;;12.80;99.90;;;;;;4987301;28;19968;-78
2023/11/06 10:02:35;;;;;;;1.67;1.15;;;12.80;99.90;;;;;;4992503;28;20054;-78
2023/11/06 10:05:15;;;;;;;2.05;1.08;;;12.90;99.90;;;;;;4992567;28;20411;-78
2023/11/06 10:07:45;;;;;;;1.70;0.60;;;12.90;99.90;;;;;;4990024;28;20046;-78
2023/11/06 10:10:13;;;;;;;;;;;12.90;99.90;;;;;;4987866;28;20148;-78
2023/11/06 10:12:40;;;;;;;0.77;0.60;;;12.90;99.90;;;;;;4987171;28;19980;-78
2023/11/06 10:15:07;;;;;;;1.63;0.55;;;12.90;99.90;;;;;;4991166;28;20518;-78
2023/11/06 10:17:34;;;;;;;3.22;1.27;;;12.90;99.90;;;;;;4994040;28;20047;-79
2023/11/06 10:20:14;;;;;;;3.45;1.55;;;12.90;99.90;;;;;;4991794;28;20042;-78
2023/11/06 10:22:56;;;;;;;5.55;2.60;;;12.90;99.90;;;;;;4988933;28;20522;-79
2023/11/06 10:25:28;;;;;;;4.15;1.35;;;12.90;99.90;;;;;;4983586;28;20042;-79
2023/11/06 10:27:56;;;;;;;2.47;1.10;;;13.00;99.90;;;;;;4984972;28;20104;-79
2023/11/06 10:30:24;;;;;;;1.88;0.88;;;13.00;99.90;;;;;;4975789;28;20129;-79
2023/11/06 10:32:51;;;;;;;4.72;2.38;;;13.00;99.90;;;;;;4992306;28;20042;-79
2023/11/06 10:35:21;;;;;;;4.53;0.90;;;13.00;99.90;;;;;;4989342;28;20089;-79
2023/11/06 10:37:48;;;;;;;1.03;0.60;;;13.00;99.90;;;;;;5001870;28;20054;-79
2023/11/06 10:40:18;;;;;;;1.88;0.90;;;13.00;99.90;;;;;;4986545;28;20047;-79
2023/11/06 10:42:48;;;;;;;3.00;1.10;;;13.00;99.90;;;;;;4989539;28;20050;-79
2023/11/06 10:45:15;;;;;;;2.33;0.75;;;13.00;99.90;;;;;;4989610;28;20053;-79
2023/11/06 10:47:45;;;;;;;1.80;1.20;;;13.00;99.90;;;;;;4992281;28;20058;-79
2023/11/06 10:50:19;;;;;;;2.60;1.00;;;13.00;99.90;;;;;;4989247;28;20050;-79
2023/11/06 10:52:50;;;;;;;2.50;0.90;;;13.00;99.90;;;;;;5004458;28;20042;-80
2023/11/06 10:55:18;;;;;;;1.58;0.90;;;13.10;99.90;;;;;;4968791;28;20098;-79
2023/11/06 10:57:59;;;;;;;2.35;1.00;;;13.10;99.90;;;;;;4980191;28;20046;-80
2023/11/06 11:00:26;;;;;;;2.35;0.80;;;13.10;99.90;;;;;;4991861;28;20086;-79
2023/11/06 11:02:55;;;;;;;1.75;0.60;;;13.10;99.90;;;;;;4990870;28;20042;-79
2023/11/06 11:05:28;;;;;;;1.85;0.80;;;13.10;99.90;;;;;;4990992;28;20502;-79
2023/11/06 11:07:59;;;;;;;2.45;1.00;;;13.10;99.90;;;;;;4987763;28;20050;-79
2023/11/06 11:10:27;;;;;;;3.60;0.80;;;13.10;99.90;;;;;;4988018;28;20043;-79
2023/11/06 11:12:58;;;;;;;0.85;0.50;;;13.20;99.90;;;;;;4997334;28;20459;-79
2023/11/06 11:15:27;;;;;;;0.77;0.40;;;13.20;99.90;;;;;;4976973;28;20052;-80
2023/11/06 11:17:57;;;;;;;1.80;0.60;;;13.20;99.90;;;;;;4994248;28;20057;-79
2023/11/06 11:20:25;;;;;;;3.38;0.77;;;13.20;99.90;;;;;;4989811;28;20046;-78
2023/11/06 11:23:06;;;;;;;5.10;0.65;;;13.30;99.90;;;;;;4991228;28;20077;-79
2023/11/06 11:25:57;;;;;;;3.33;0.70;;;13.30;99.90;;;;;;4989290;28;20058;-79
2023/11/06 11:28:26;;;;;;;1.90;1.05;;;13.30;99.90;;;;;;4983642;28;20054;-79
2023/11/06 11:30:55;;;;;;;;;;;13.30;99.90;;;;;;4993799;28;20081;-79
2023/11/06 11:33:55;;;;;;;1.23;0.57;;;13.30;99.90;;;;;;4990801;28;19921;-79
2023/11/06 11:36:38;;;;;;;2.20;1.25;;;13.40;99.90;;;;;;5005270;28;20046;-79
2023/11/06 11:39:14;;;;;;;2.40;1.38;;;13.40;99.90;;;;;;4990700;28;20066;-79
2023/11/06 11:42:03;;;;;;;2.08;0.73;;;13.40;99.90;;;;;;4996530;28;20059;-79
2023/11/06 11:44:31;;;;;;;1.67;0.70;;;13.50;99.90;;;;;;4991557;28;20049;-79
2023/11/06 11:47:03;;;;;;;0.77;0.40;;;13.50;99.90;;;;;;4976843;28;20057;-80
2023/11/06 11:49:41;;;;;;;5.28;0.93;;;13.60;99.90;;;;;;4969631;28;20040;-79
2023/11/06 11:52:09;;;;;;;1.80;0.70;;;13.60;99.90;;;;;;4986738;28;20047;-79
2023/11/06 11:54:37;;;;;;;2.78;1.10;;;13.60;99.90;;;;;;4979017;28;20046;-79
2023/11/06 11:57:07;;;;;;;2.75;1.10;;;13.70;99.90;;;;;;4995554;28;20050;-77
2023/11/06 11:59:52;;;;;;;4.30;0.80;;;13.70;99.90;;;;;;4992473;28;20050;-80
2023/11/06 12:02:31;;;;;;;2.08;0.68;;;13.70;99.90;;;;;;4988448;28;20469;-80
2023/11/06 12:05:00;;;;;;;1.42;0.40;;;13.70;99.90;;;;;;4990311;28;20058;-77
2023/11/06 12:07:30;;;;;;;7.80;0.90;;;13.70;99.90;;;;;;4983390;28;20054;-77
2023/11/06 12:09:58;;;;;;;2.13;0.70;;;13.80;99.90;;;;;;4995532;28;20049;-77
2023/11/06 12:12:29;;;;;;;0.80;0.60;;;13.80;99.90;;;;;;4992253;28;20046;-77
2023/11/06 12:14:57;;;;;;;1.80;0.65;;;13.80;99.90;;;;;;5001421;28;20046;-78
2023/11/06 12:17:29;;;;;;;1.52;0.70;;;13.80;99.90;;;;;;4989436;28;20038;-80
2023/11/06 12:20:01;;;;;;;0.50;0.50;;;13.80;99.90;;;;;;4988909;28;20486;-77
2023/11/06 12:22:33;;;;;;;1.15;0.40;;;13.90;99.90;;;;;;4984126;28;20049;-78
2023/11/06 12:25:00;;;;;;;0.90;0.43;;;13.90;99.90;;;;;;4991304;28;20049;-78
2023/11/06 12:27:34;;;;;;;1.83;0.43;;;13.90;99.90;;;;;;4975640;28;20058;-80
2023/11/06 12:30:07;;;;;;;0.93;0.40;;;13.90;99.90;;;;;;4989106;28;20050;-78
2023/11/06 12:32:37;;;;;;;3.40;0.90;;;13.90;99.90;;;;;;4986500;28;20054;-78
2023/11/06 12:35:05;;;;;;;;;;;13.80;99.90;;;;;;4983646;28;20038;-78
2023/11/06 12:37:55;;;;;;;0.63;0.30;;;13.70;99.90;;;;;;4987954;28;19929;-78
2023/11/06 12:40:27;;;;;;;1.55;0.50;;;13.70;99.90;;;;;;4985892;28;20053;-78
2023/11/06 12:42:55;;;;;;;0.43;0.30;;;13.70;99.90;;;;;;4991376;28;20521;-79
2023/11/06 12:45:26;;;;;;;2.08;0.40;;;13.70;99.90;;;;;;4989086;28;20047;-80
2023/11/06 12:47:54;;;;;;;0.45;0.40;;;13.70;99.90;;;;;;4989430;28;20073;-78
2023/11/06 12:50:23;;;;;;;0.90;0.50;;;13.70;99.90;;;;;;4984397;28;20061;-78
2023/11/06 12:52:51;;;;;;;1.95;0.45;;;13.60;99.90;;;;;;4992977;28;20078;-78